X  CloseMetar Aviation Weather Data     EKYT Aalborg

Temperature

6°C Temperature

5°C Dewpoint

93% Humidity



Wind

26 KM/H

16 MPH

 7 M/S

14 KTS



250°
West South
West
Current Conditions

Partly Cloudy Partly Cloudy
Pressure 1012.92 (hPa) - 29.91 (in)
Visibility 6.2 (mi) - 10 (km)
Airport
Airport-code EKYT

Location Aalborg 55 (km)

Metar:
EKYT 241550Z AUTO 25014KT 9999 FEW020/// SCT035/// 06/05 Q1013

Time: 24-01-2020 16:50